createdAt,value
2022-09-23T00:02:57.092Z,101467.41
2022-09-23T00:07:09.413Z,101468.66
2022-09-23T00:11:27.134Z,101476.75
2022-09-23T00:15:39.757Z,101465.78
2022-09-23T00:19:51.246Z,101476.34
2022-09-23T00:24:02.786Z,101479.88
2022-09-23T00:28:14.346Z,101467.06
2022-09-23T00:32:26.405Z,101459.84
2022-09-23T00:36:38.589Z,101449.09
2022-09-23T00:40:51.355Z,101457.56
2022-09-23T00:45:04.413Z,101458.63
2022-09-23T00:49:30.193Z,101446.00
2022-09-23T00:53:42.230Z,101438.16
2022-09-23T00:57:59.168Z,101439.63
2022-09-23T01:02:14.048Z,101434.88
2022-09-23T01:06:26.254Z,101434.91
2022-09-23T01:10:59.788Z,101441.56
2022-09-23T01:15:19.738Z,101430.00
2022-09-23T01:19:36.251Z,101435.41
2022-09-23T01:24:06.098Z,101421.56
2022-09-23T01:28:37.879Z,101428.81
2022-09-23T01:33:01.939Z,101427.16
2022-09-23T01:37:19.392Z,101431.13
2022-09-23T01:41:48.177Z,101416.88
2022-09-23T01:46:02.363Z,101415.06
2022-09-23T01:50:40.607Z,101411.97
2022-09-23T01:55:00.318Z,101417.56
2022-09-23T01:59:17.761Z,101412.84
2022-09-23T02:03:37.036Z,101414.72
2022-09-23T02:07:59.899Z,101423.59
2022-09-23T02:12:18.896Z,101413.91
2022-09-23T02:16:42.326Z,101413.09
2022-09-23T02:21:00.414Z,101408.94
2022-09-23T02:25:12.564Z,101401.53
2022-09-23T02:30:17.172Z,101405.66
2022-09-23T02:34:32.910Z,101394.72
2022-09-23T02:38:57.536Z,101405.84
2022-09-23T02:43:11.985Z,101378.34
2022-09-23T02:47:29.130Z,101379.59
2022-09-23T02:51:40.974Z,101377.31
2022-09-23T02:55:52.533Z,101375.25
2022-09-23T03:00:05.475Z,101369.88
2022-09-23T03:04:35.826Z,101369.81
2022-09-23T03:08:54.805Z,101350.63
2022-09-23T03:13:35.359Z,101350.63
2022-09-23T03:18:12.875Z,101347.94
2022-09-23T03:22:34.191Z,101339.88
2022-09-23T03:26:47.789Z,101344.88
2022-09-23T03:31:02.139Z,101346.53
2022-09-23T03:35:14.593Z,101352.94
2022-09-23T03:39:48.665Z,101350.25
2022-09-23T03:44:00.933Z,101332.09
2022-09-23T03:48:14.994Z,101339.53
2022-09-23T03:52:26.894Z,101328.59
2022-09-23T03:56:38.398Z,101334.16
2022-09-23T04:00:50.004Z,101330.69
2022-09-23T04:05:01.680Z,101332.31
2022-09-23T04:09:13.376Z,101329.00
2022-09-23T04:13:24.901Z,101318.91
2022-09-23T04:17:36.669Z,101320.97
2022-09-23T04:21:48.626Z,101328.38
2022-09-23T04:26:00.237Z,101315.19
2022-09-23T04:30:12.609Z,101324.47
2022-09-23T04:34:24.189Z,101323.44
2022-09-23T04:38:35.724Z,101322.81
2022-09-23T04:42:47.216Z,101311.25
2022-09-23T04:46:58.859Z,101327.75
2022-09-23T04:51:11.688Z,101334.38
2022-09-23T04:55:23.231Z,101311.84
2022-09-23T04:59:34.806Z,101314.13
2022-09-23T05:03:46.759Z,101309.78
2022-09-23T05:07:58.319Z,101324.25
2022-09-23T05:12:10.033Z,101319.69
2022-09-23T05:16:23.393Z,101317.00
2022-09-23T05:20:35.181Z,101317.00
2022-09-23T05:24:46.711Z,101317.84
2022-09-23T05:28:59.018Z,101323.38
2022-09-23T05:33:11.026Z,101323.19
2022-09-23T05:37:23.243Z,101325.66
2022-09-23T05:41:35.005Z,101323.59
2022-09-23T05:45:46.526Z,101319.25
2022-09-23T05:50:00.482Z,101317.75
2022-09-23T05:54:12.714Z,101324.38
2022-09-23T05:58:25.049Z,101338.00
2022-09-23T06:02:36.839Z,101314.63
2022-09-23T06:06:48.546Z,101337.91
2022-09-23T06:11:07.114Z,101327.13
2022-09-23T06:15:18.863Z,101321.06
2022-09-23T06:19:30.462Z,101322.44
2022-09-23T06:23:43.696Z,101323.66
2022-09-23T06:27:56.367Z,101327.56
2022-09-23T06:32:07.900Z,101325.25
2022-09-23T06:36:35.881Z,101323.56
2022-09-23T06:40:52.292Z,101320.19
2022-09-23T06:45:04.116Z,101320.53
2022-09-23T06:49:15.666Z,101323.34
2022-09-23T06:53:27.232Z,101332.63
2022-09-23T06:57:39.552Z,101311.31
2022-09-23T07:01:51.131Z,101331.31
2022-09-23T07:06:03.212Z,101325.44
2022-09-23T07:10:15.037Z,101334.88
2022-09-23T07:14:26.893Z,101332.94
2022-09-23T07:18:39.052Z,101327.50
2022-09-23T07:22:52.174Z,101332.97
2022-09-23T07:27:03.775Z,101319.88
2022-09-23T07:31:28.174Z,101324.53
2022-09-23T07:35:46.291Z,101333.16
2022-09-23T07:39:57.817Z,101326.41
2022-09-23T07:44:11.062Z,101325.28
2022-09-23T07:48:22.540Z,101320.13
2022-09-23T07:52:38.156Z,101326.44
2022-09-23T07:56:49.639Z,101317.88
2022-09-23T08:01:04.044Z,101327.25
2022-09-23T08:05:16.317Z,101317.06
2022-09-23T08:09:33.974Z,101328.94
2022-09-23T08:13:45.487Z,101320.34
2022-09-23T08:18:00.424Z,101327.47
2022-09-23T08:22:12.182Z,101327.16
2022-09-23T08:26:23.990Z,101332.25
2022-09-23T08:30:35.527Z,101341.72
2022-09-23T08:34:47.090Z,101334.59
2022-09-23T08:38:58.596Z,101341.41
2022-09-23T08:43:27.403Z,101331.22
2022-09-23T08:47:57.658Z,101339.16
2022-09-23T08:52:17.785Z,101331.59
2022-09-23T08:56:30.585Z,101336.31
2022-09-23T09:00:44.981Z,101332.63
2022-09-23T09:05:05.977Z,101328.66
2022-09-23T09:09:30.927Z,101326.81
2022-09-23T09:13:54.982Z,101331.13
2022-09-23T09:18:13.831Z,101324.44
2022-09-23T09:22:41.713Z,101319.00
2022-09-23T09:26:53.647Z,101316.50
2022-09-23T09:31:42.929Z,101305.84
2022-09-23T09:36:14.991Z,101308.06
2022-09-23T09:40:26.531Z,101302.66
2022-09-23T09:44:50.477Z,101301.28
2022-09-23T09:49:10.367Z,101297.47
2022-09-23T09:53:27.379Z,101304.31
2022-09-23T09:57:53.623Z,101294.75
2022-09-23T10:02:26.536Z,101297.22
2022-09-23T10:06:38.068Z,101274.69
2022-09-23T10:10:58.986Z,101287.53
2022-09-23T10:15:27.402Z,101282.06
2022-09-23T10:19:46.482Z,101284.13
2022-09-23T10:23:58.530Z,101284.84
2022-09-23T10:28:30.674Z,101291.03
2022-09-23T10:32:45.592Z,101289.59
2022-09-23T10:37:16.914Z,101288.50
2022-09-23T10:41:58.130Z,101270.97
2022-09-23T10:46:41.376Z,101280.78
2022-09-23T10:50:54.226Z,101274.59
2022-09-23T10:55:31.456Z,101274.56
2022-09-23T11:00:14.867Z,101270.09
2022-09-23T11:04:45.211Z,101273.94
2022-09-23T11:09:32.812Z,101266.81
2022-09-23T11:13:54.563Z,101262.28
2022-09-23T11:18:16.849Z,101268.91
2022-09-23T11:23:00.984Z,101271.69
2022-09-23T11:27:16.514Z,101267.63
2022-09-23T11:31:59.305Z,101257.78
2022-09-23T11:36:34.604Z,101259.13
2022-09-23T11:40:54.637Z,101263.50
2022-09-23T11:45:21.373Z,101259.41
2022-09-23T11:49:39.304Z,101252.59
2022-09-23T11:53:50.832Z,101250.69
2022-09-23T11:58:23.808Z,101242.78
2022-09-23T12:03:07.628Z,101237.59
2022-09-23T12:07:24.499Z,101237.03
2022-09-23T12:11:44.823Z,101231.84
2022-09-23T12:16:17.799Z,101226.66
2022-09-23T12:20:37.801Z,101228.00
2022-09-23T12:24:55.818Z,101226.88
2022-09-23T12:29:14.081Z,101229.84
2022-09-23T12:33:28.310Z,101219.09
2022-09-23T12:37:39.883Z,101217.06
2022-09-23T12:41:58.532Z,101204.50
2022-09-23T12:46:25.538Z,101201.66
2022-09-23T12:51:15.791Z,101198.63
2022-09-23T12:55:33.403Z,101197.31
2022-09-23T12:59:58.462Z,101186.47
2022-09-23T13:05:01.768Z,101190.28
2022-09-23T13:09:19.028Z,101181.53
2022-09-23T13:13:45.417Z,101173.63
2022-09-23T13:18:18.834Z,101177.47
2022-09-23T13:23:00.802Z,101172.59
2022-09-23T13:27:20.155Z,101174.78
2022-09-23T13:31:31.834Z,101151.59
2022-09-23T13:35:50.533Z,101163.06
2022-09-23T13:40:30.039Z,101161.16
2022-09-23T13:44:41.647Z,101170.44
2022-09-23T13:48:54.586Z,101172.13
2022-09-23T13:53:09.960Z,101162.34
2022-09-23T13:57:27.460Z,101162.59
2022-09-23T14:01:39.232Z,101152.47
2022-09-23T14:05:52.046Z,101155.69
2022-09-23T14:10:06.420Z,101149.69
2022-09-23T14:14:18.458Z,101138.50
2022-09-23T14:18:36.417Z,101146.34
2022-09-23T14:22:47.983Z,101139.81
2022-09-23T14:27:11.986Z,101136.28
2022-09-23T14:31:23.801Z,101125.09
2022-09-23T14:35:42.701Z,101125.94
2022-09-23T14:39:57.696Z,101109.38
2022-09-23T14:44:22.256Z,101121.66
2022-09-23T14:48:35.679Z,101109.19
2022-09-23T14:52:51.383Z,101121.19
2022-09-23T14:57:18.999Z,101102.38
2022-09-23T15:01:30.579Z,101109.75
2022-09-23T15:05:46.164Z,101101.34
2022-09-23T15:09:58.330Z,101092.91
2022-09-23T15:14:36.231Z,101106.81
2022-09-23T15:18:46.197Z,101103.00
2022-09-23T15:22:57.737Z,101090.22
2022-09-23T15:27:27.069Z,101106.88
2022-09-23T15:31:38.976Z,101088.66
2022-09-23T15:35:50.537Z,101106.66
2022-09-23T15:40:02.360Z,101102.06
2022-09-23T15:44:15.677Z,101099.06
2022-09-23T15:48:37.321Z,101101.03
2022-09-23T15:52:48.854Z,101086.03
2022-09-23T15:57:01.077Z,101087.13
2022-09-23T16:01:26.420Z,101090.38
2022-09-23T16:05:39.788Z,101102.38
2022-09-23T16:09:51.682Z,101099.41
2022-09-23T16:14:03.234Z,101087.69
2022-09-23T16:18:14.763Z,101093.19
2022-09-23T16:22:26.279Z,101092.91
2022-09-23T16:26:39.658Z,101089.88
2022-09-23T16:30:51.212Z,101086.34
2022-09-23T16:35:02.892Z,101080.34
2022-09-23T16:39:14.473Z,101076.25
2022-09-23T16:43:39.151Z,101075.69
2022-09-23T16:47:51.882Z,101087.13
2022-09-23T16:52:03.731Z,101092.53
2022-09-23T16:56:16.897Z,101081.91
2022-09-23T17:00:47.091Z,101090.06
2022-09-23T17:04:58.961Z,101084.50
2022-09-23T17:09:11.398Z,101100.78
2022-09-23T17:13:23.171Z,101089.03
2022-09-23T17:17:37.536Z,101082.69
2022-09-23T17:21:49.135Z,101087.53
2022-09-23T17:26:01.337Z,101090.47
2022-09-23T17:30:14.528Z,101084.44
2022-09-23T17:34:26.203Z,101077.59
2022-09-23T17:38:41.383Z,101084.34
2022-09-23T17:42:55.843Z,101081.03
2022-09-23T17:47:07.454Z,101074.19
2022-09-23T17:51:19.868Z,101067.09
2022-09-23T17:55:31.452Z,101067.84
2022-09-23T17:59:43.144Z,101067.28
2022-09-23T18:04:02.211Z,101072.44
2022-09-23T18:08:13.814Z,101073.22
2022-09-23T18:12:25.400Z,101082.19
2022-09-23T18:16:39.527Z,101071.50
2022-09-23T18:20:51.146Z,101066.28
2022-09-23T18:25:13.229Z,101078.78
2022-09-23T18:29:35.599Z,101078.66
2022-09-23T18:33:51.809Z,101070.75
2022-09-23T18:38:15.736Z,101071.25
2022-09-23T18:42:27.486Z,101080.72
2022-09-23T18:46:39.036Z,101073.09
2022-09-23T18:50:51.822Z,101082.31
2022-09-23T18:55:03.519Z,101085.00
2022-09-23T18:59:19.331Z,101098.00
2022-09-23T19:03:30.901Z,101091.69
2022-09-23T19:07:42.460Z,101091.94
2022-09-23T19:11:54.047Z,101085.13
2022-09-23T19:16:16.560Z,101083.16
2022-09-23T19:20:29.070Z,101090.50
2022-09-23T19:24:40.729Z,101085.56
2022-09-23T19:28:54.868Z,101082.28
2022-09-23T19:33:08.966Z,101087.13
2022-09-23T19:37:20.949Z,101082.53
2022-09-23T19:41:33.439Z,101084.09
2022-09-23T19:45:53.491Z,101082.22
2022-09-23T19:50:07.244Z,101082.16
2022-09-23T19:54:21.692Z,101088.69
2022-09-23T19:58:35.277Z,101083.50
2022-09-23T20:02:47.017Z,101084.81
2022-09-23T20:06:58.580Z,101080.16
2022-09-23T20:11:13.193Z,101083.88
2022-09-23T20:15:24.979Z,101078.41
2022-09-23T20:19:36.603Z,101073.22
2022-09-23T20:23:48.442Z,101069.69
2022-09-23T20:28:00.058Z,101068.56
2022-09-23T20:32:11.694Z,101063.38
2022-09-23T20:36:24.235Z,101050.91
2022-09-23T20:40:38.306Z,101047.06
2022-09-23T20:44:50.017Z,101055.50
2022-09-23T20:49:02.317Z,101050.59
2022-09-23T20:53:14.082Z,101044.06
2022-09-23T20:57:27.688Z,101034.47
2022-09-23T21:01:39.408Z,101038.81
2022-09-23T21:05:51.839Z,101034.72
2022-09-23T21:10:06.865Z,101034.97
2022-09-23T21:14:21.548Z,101032.25
2022-09-23T21:18:35.133Z,101030.31
2022-09-23T21:22:49.781Z,101025.41
2022-09-23T21:27:03.872Z,101028.09
2022-09-23T21:31:23.669Z,101036.22
2022-09-23T21:35:35.561Z,101025.66
2022-09-23T21:40:07.173Z,101024.50
2022-09-23T21:44:18.860Z,101019.25
2022-09-23T21:48:32.766Z,101029.84
2022-09-23T21:52:46.341Z,101029.84
2022-09-23T21:56:58.168Z,101031.44
2022-09-23T22:01:18.359Z,101022.66
2022-09-23T22:05:29.959Z,101015.53
2022-09-23T22:09:41.513Z,101021.25
2022-09-23T22:13:53.563Z,101025.53
2022-09-23T22:18:05.894Z,101017.00
2022-09-23T22:22:18.622Z,101021.13
2022-09-23T22:26:35.867Z,101022.34
2022-09-23T22:31:06.115Z,101025.84
2022-09-23T22:35:18.267Z,101010.94
2022-09-23T22:39:30.494Z,101018.22
2022-09-23T22:43:42.097Z,101010.88
2022-09-23T22:47:53.754Z,101011.19
2022-09-23T22:52:09.133Z,101014.66
2022-09-23T22:56:20.860Z,101008.16
2022-09-23T23:00:32.457Z,101003.50
2022-09-23T23:04:46.275Z,101005.47
2022-09-23T23:09:00.052Z,101015.19
2022-09-23T23:13:11.645Z,100994.63
2022-09-23T23:17:23.267Z,101001.41
2022-09-23T23:21:36.378Z,101009.28
2022-09-23T23:25:48.667Z,101001.94
2022-09-23T23:30:00.265Z,101001.13
2022-09-23T23:34:14.610Z,100997.81
2022-09-23T23:38:26.798Z,100999.97
2022-09-23T23:42:38.413Z,101003.50
2022-09-23T23:46:50.060Z,100998.31
2022-09-23T23:51:03.437Z,100994.22
2022-09-23T23:55:15.982Z,100998.56
2022-09-23T23:59:28.329Z,100996.69
